createdAt,value
2023-06-13T00:00:10.978Z,9.51
2023-06-13T00:02:57.322Z,9.52
2023-06-13T00:05:47.464Z,9.53
2023-06-13T00:08:33.757Z,9.54
2023-06-13T00:11:19.140Z,9.55
2023-06-13T00:14:04.726Z,9.55
2023-06-13T00:16:51.515Z,9.53
2023-06-13T00:19:37.852Z,9.50
2023-06-13T00:22:25.905Z,9.51
2023-06-13T00:25:11.310Z,9.49
2023-06-13T00:27:56.758Z,9.52
2023-06-13T00:30:42.075Z,9.51
2023-06-13T00:33:32.404Z,9.51
2023-06-13T00:36:21.374Z,9.58
2023-06-13T00:39:07.569Z,9.61
2023-06-13T00:41:52.933Z,9.63
2023-06-13T00:44:38.343Z,9.66
2023-06-13T00:47:27.703Z,9.67
2023-06-13T00:50:16.541Z,9.69
2023-06-13T00:53:04.137Z,9.70
2023-06-13T00:55:51.406Z,9.75
2023-06-13T00:58:37.345Z,9.75
2023-06-13T01:01:24.132Z,9.75
2023-06-13T01:04:09.795Z,9.78
2023-06-13T01:06:55.006Z,9.82
2023-06-13T01:09:40.492Z,9.85
2023-06-13T01:12:34.306Z,9.82
2023-06-13T01:15:22.176Z,9.83
2023-06-13T01:18:11.355Z,9.82
2023-06-13T01:20:57.765Z,9.84
2023-06-13T01:23:43.268Z,9.82
2023-06-13T01:26:43.786Z,9.82
2023-06-13T01:29:30.929Z,9.79
2023-06-13T01:32:17.318Z,9.78
2023-06-13T01:35:03.891Z,9.80
2023-06-13T01:37:49.778Z,9.77
2023-06-13T01:40:35.490Z,9.81
2023-06-13T01:43:21.002Z,9.82
2023-06-13T01:46:25.270Z,9.81
2023-06-13T01:49:10.558Z,9.82
2023-06-13T01:52:21.568Z,9.84
2023-06-13T01:55:22.990Z,9.84
2023-06-13T01:58:36.672Z,9.84
2023-06-13T02:01:23.232Z,9.82
2023-06-13T02:04:09.386Z,9.78
2023-06-13T02:06:54.889Z,9.74
2023-06-13T02:09:40.177Z,9.72
2023-06-13T02:12:25.655Z,9.72
2023-06-13T02:15:11.958Z,9.74
2023-06-13T02:17:57.212Z,9.71
2023-06-13T02:20:46.460Z,9.68
2023-06-13T02:23:32.650Z,9.67
2023-06-13T02:26:18.285Z,9.65
2023-06-13T02:29:03.812Z,9.64
2023-06-13T02:31:49.434Z,9.65
2023-06-13T02:34:34.646Z,9.64
2023-06-13T02:37:21.458Z,9.65
2023-06-13T02:40:09.110Z,9.66
2023-06-13T02:42:55.313Z,9.67
2023-06-13T02:45:40.735Z,9.69
2023-06-13T02:48:27.321Z,9.71
2023-06-13T02:51:13.027Z,9.72
2023-06-13T02:53:58.294Z,9.75
2023-06-13T02:56:43.564Z,9.73
2023-06-13T02:59:28.734Z,9.71
2023-06-13T03:02:13.936Z,9.73
2023-06-13T03:04:59.130Z,9.78
2023-06-13T03:07:47.438Z,9.74
2023-06-13T03:10:34.191Z,9.76
2023-06-13T03:13:19.863Z,9.78
2023-06-13T03:16:05.559Z,9.77
2023-06-13T03:18:51.467Z,9.78
2023-06-13T03:21:37.082Z,9.81
2023-06-13T03:24:23.024Z,9.79
2023-06-13T03:27:08.223Z,9.82
2023-06-13T03:29:53.410Z,9.86
2023-06-13T03:32:38.744Z,9.87
2023-06-13T03:35:24.148Z,9.84
2023-06-13T03:38:09.558Z,9.82
2023-06-13T03:40:54.953Z,9.89
2023-06-13T03:43:40.339Z,9.90
2023-06-13T03:46:25.731Z,9.90
2023-06-13T03:49:11.055Z,9.88
2023-06-13T03:51:56.455Z,9.83
2023-06-13T03:54:41.772Z,9.84
2023-06-13T03:57:27.382Z,9.85
2023-06-13T04:00:13.456Z,9.90
2023-06-13T04:03:01.622Z,9.93
2023-06-13T04:05:47.011Z,9.98
2023-06-13T04:08:32.319Z,10.05
2023-06-13T04:11:17.592Z,10.04
2023-06-13T04:14:03.281Z,10.06
2023-06-13T04:16:48.597Z,10.09
2023-06-13T04:19:33.858Z,10.13
2023-06-13T04:22:19.336Z,10.16
2023-06-13T04:25:04.841Z,10.20
2023-06-13T04:27:50.506Z,10.21
2023-06-13T04:30:35.861Z,10.23
2023-06-13T04:33:22.824Z,10.22
2023-06-13T04:36:09.626Z,10.26
2023-06-13T04:38:54.979Z,10.33
2023-06-13T04:41:44.605Z,10.38
2023-06-13T04:44:30.273Z,10.43
2023-06-13T04:47:15.471Z,10.40
2023-06-13T04:50:00.961Z,10.44
2023-06-13T04:52:46.708Z,10.45
2023-06-13T04:55:34.029Z,10.49
2023-06-13T04:58:20.008Z,10.47
2023-06-13T05:01:05.622Z,10.48
2023-06-13T05:03:52.747Z,10.50
2023-06-13T05:06:39.234Z,10.51
2023-06-13T05:09:25.179Z,10.54
2023-06-13T05:12:12.262Z,10.51
2023-06-13T05:14:57.643Z,10.50
2023-06-13T05:17:43.305Z,10.54
2023-06-13T05:20:28.802Z,10.54
2023-06-13T05:23:14.791Z,10.48
2023-06-13T05:25:59.909Z,10.44
2023-06-13T05:28:45.288Z,10.45
2023-06-13T05:31:30.549Z,10.48
2023-06-13T05:34:16.053Z,10.48
2023-06-13T05:37:01.894Z,10.57
2023-06-13T05:39:47.263Z,10.68
2023-06-13T05:42:35.925Z,10.72
2023-06-13T05:45:21.588Z,10.75
2023-06-13T05:48:07.139Z,10.78
2023-06-13T05:50:52.276Z,10.77
2023-06-13T05:53:37.618Z,10.73
2023-06-13T05:56:22.940Z,10.70
2023-06-13T05:59:08.430Z,10.74
2023-06-13T06:01:54.168Z,10.80
2023-06-13T06:04:39.998Z,10.81
2023-06-13T06:07:25.088Z,10.86
2023-06-13T06:10:11.934Z,10.86
2023-06-13T06:12:57.771Z,10.87
2023-06-13T06:15:43.065Z,10.91
2023-06-13T06:18:28.552Z,10.94
2023-06-13T06:21:15.159Z,10.93
2023-06-13T06:24:01.119Z,10.92
2023-06-13T06:26:46.193Z,10.92
2023-06-13T06:29:32.249Z,10.89
2023-06-13T06:32:17.326Z,10.93
2023-06-13T06:35:04.840Z,10.99
2023-06-13T06:37:49.944Z,11.04
2023-06-13T06:40:35.037Z,11.00
2023-06-13T06:43:20.271Z,10.98
2023-06-13T06:46:08.669Z,10.93
2023-06-13T06:48:55.313Z,10.83
2023-06-13T06:51:40.903Z,10.80
2023-06-13T06:54:26.525Z,10.79
2023-06-13T06:57:11.708Z,10.83
2023-06-13T06:59:56.953Z,10.86
2023-06-13T07:02:42.888Z,10.87
2023-06-13T07:05:28.045Z,10.92
2023-06-13T07:08:13.597Z,10.91
2023-06-13T07:10:59.477Z,10.95
2023-06-13T07:13:44.743Z,10.98
2023-06-13T07:16:30.150Z,11.04
2023-06-13T07:19:15.456Z,11.10
2023-06-13T07:22:03.355Z,11.15
2023-06-13T07:24:51.317Z,11.10
2023-06-13T07:27:37.315Z,11.08
2023-06-13T07:30:22.422Z,11.02
2023-06-13T07:33:07.667Z,10.95
2023-06-13T07:35:54.073Z,10.89
2023-06-13T07:38:39.264Z,10.80
2023-06-13T07:41:24.801Z,10.82
2023-06-13T07:44:10.293Z,10.92
2023-06-13T07:46:55.618Z,10.98
2023-06-13T07:49:40.917Z,11.04
2023-06-13T07:52:26.172Z,11.09
2023-06-13T07:55:12.048Z,11.13
2023-06-13T07:58:00.175Z,11.20
2023-06-13T08:00:45.986Z,11.19
2023-06-13T08:03:31.614Z,11.16
2023-06-13T08:06:17.188Z,11.21
2023-06-13T08:09:02.365Z,11.22
2023-06-13T08:11:47.562Z,11.21
2023-06-13T08:14:32.886Z,11.25
2023-06-13T08:17:19.045Z,11.31
2023-06-13T08:20:05.962Z,11.33
2023-06-13T08:22:51.571Z,11.34
2023-06-13T08:25:37.049Z,11.33
2023-06-13T08:28:22.300Z,11.34
2023-06-13T08:31:39.493Z,11.33
2023-06-13T08:34:14.245Z,11.24
2023-06-13T08:37:01.641Z,11.17
2023-06-13T08:39:46.680Z,11.17
2023-06-13T08:42:32.970Z,11.10
2023-06-13T08:45:18.950Z,11.04
2023-06-13T08:48:04.619Z,11.06
2023-06-13T08:50:49.836Z,11.12
2023-06-13T08:53:38.802Z,11.09
2023-06-13T08:56:26.961Z,11.11
2023-06-13T08:59:18.016Z,11.10
2023-06-13T09:02:05.342Z,11.14
2023-06-13T09:04:54.122Z,11.15
2023-06-13T09:07:42.006Z,11.20
2023-06-13T09:10:29.163Z,11.14
2023-06-13T09:13:17.296Z,11.17
2023-06-13T09:16:02.801Z,11.22
2023-06-13T09:18:51.259Z,11.26
2023-06-13T09:21:38.331Z,11.27
2023-06-13T09:24:27.568Z,11.28
2023-06-13T09:27:14.071Z,11.27
2023-06-13T09:30:01.917Z,11.30
2023-06-13T09:32:52.674Z,11.36
2023-06-13T09:35:39.634Z,11.38
2023-06-13T09:38:25.860Z,11.35
2023-06-13T09:41:14.615Z,11.32
2023-06-13T09:44:06.722Z,11.36
2023-06-13T09:46:53.782Z,11.41
2023-06-13T09:49:48.646Z,11.41
2023-06-13T09:52:45.067Z,11.45
2023-06-13T09:55:30.598Z,11.45
2023-06-13T09:58:31.822Z,11.58
2023-06-13T10:01:20.141Z,11.61
2023-06-13T10:04:07.153Z,11.67
2023-06-13T10:06:52.389Z,11.72
2023-06-13T10:09:37.652Z,11.81
2023-06-13T10:12:24.745Z,11.84
2023-06-13T10:15:14.358Z,11.88
2023-06-13T10:18:04.059Z,11.92
2023-06-13T10:20:51.325Z,11.91
2023-06-13T10:23:43.486Z,11.95
2023-06-13T10:26:42.084Z,12.03
2023-06-13T10:29:47.293Z,12.13
2023-06-13T10:32:47.916Z,12.22
2023-06-13T10:36:04.082Z,12.36
2023-06-13T10:39:30.092Z,12.61
2023-06-13T10:42:24.970Z,12.72
2023-06-13T10:45:16.856Z,12.76
2023-06-13T10:48:07.362Z,12.68
2023-06-13T10:50:57.255Z,12.62
2023-06-13T10:53:44.205Z,12.54
2023-06-13T10:56:31.547Z,12.57
2023-06-13T10:59:18.284Z,12.59
2023-06-13T11:02:05.384Z,12.66
2023-06-13T11:04:52.404Z,12.72
2023-06-13T11:07:38.110Z,12.77
2023-06-13T11:10:25.565Z,12.79
2023-06-13T11:13:23.189Z,12.90
2023-06-13T11:16:41.663Z,13.08
2023-06-13T11:19:29.159Z,13.27
2023-06-13T11:22:14.778Z,13.34
2023-06-13T11:25:00.786Z,13.39
2023-06-13T11:27:47.887Z,13.39
2023-06-13T11:30:33.495Z,13.45
2023-06-13T11:33:20.388Z,13.48
2023-06-13T11:36:06.444Z,13.68
2023-06-13T11:39:10.867Z,13.90
2023-06-13T11:41:56.440Z,13.97
2023-06-13T11:44:44.034Z,13.84
2023-06-13T11:47:29.636Z,13.80
2023-06-13T11:50:15.028Z,13.74
2023-06-13T11:53:08.666Z,13.80
2023-06-13T11:56:05.871Z,13.78
2023-06-13T11:58:53.342Z,13.79
2023-06-13T12:01:38.767Z,13.85
2023-06-13T12:04:26.589Z,13.88
2023-06-13T12:07:14.470Z,13.89
2023-06-13T12:09:59.946Z,13.79
2023-06-13T12:13:00.627Z,13.76
2023-06-13T12:15:46.314Z,13.78
2023-06-13T12:18:31.508Z,13.77
2023-06-13T12:21:16.888Z,13.69
2023-06-13T12:24:09.955Z,13.68
2023-06-13T12:26:56.107Z,13.74
2023-06-13T12:29:42.444Z,13.89
2023-06-13T12:32:27.536Z,14.05
2023-06-13T12:35:13.868Z,14.06
2023-06-13T12:38:01.246Z,14.10
2023-06-13T12:40:52.829Z,14.17
2023-06-13T12:43:42.584Z,14.11
2023-06-13T12:46:28.056Z,14.17
2023-06-13T12:49:15.837Z,14.25
2023-06-13T12:52:01.951Z,14.31
2023-06-13T12:54:47.474Z,14.37
2023-06-13T12:57:33.564Z,14.32
2023-06-13T13:00:20.791Z,14.36
2023-06-13T13:03:06.652Z,14.48
2023-06-13T13:08:57.526Z,14.60
2023-06-13T13:11:42.801Z,14.51
2023-06-13T13:14:30.368Z,14.45
2023-06-13T13:17:17.150Z,14.43
2023-06-13T13:20:04.255Z,14.43
2023-06-13T13:22:49.476Z,14.34
2023-06-13T13:25:35.131Z,14.31
2023-06-13T13:28:21.500Z,14.23
2023-06-13T13:31:07.058Z,14.19
2023-06-13T13:33:52.485Z,14.15
2023-06-13T13:36:37.855Z,14.16
2023-06-13T13:39:24.879Z,14.12
2023-06-13T13:42:22.011Z,14.15
2023-06-13T13:45:11.554Z,14.24
2023-06-13T13:47:57.193Z,14.23
2023-06-13T13:50:42.676Z,14.30
2023-06-13T13:53:30.677Z,14.34
2023-06-13T13:56:16.871Z,14.42
2023-06-13T13:59:02.406Z,14.51
2023-06-13T14:01:47.696Z,14.61
2023-06-13T14:04:33.766Z,14.57
2023-06-13T14:07:19.419Z,14.52
2023-06-13T14:10:05.296Z,14.60
2023-06-13T14:12:51.624Z,14.60
2023-06-13T14:15:37.086Z,14.60
2023-06-13T14:18:22.891Z,14.40
2023-06-13T14:21:08.178Z,14.32
2023-06-13T14:23:57.105Z,14.35
2023-06-13T14:26:42.500Z,14.32
2023-06-13T14:29:27.551Z,14.30
2023-06-13T14:32:13.091Z,14.37
2023-06-13T14:34:58.285Z,14.45
2023-06-13T14:37:44.360Z,14.62
2023-06-13T14:40:30.672Z,14.66
2023-06-13T14:43:15.956Z,14.68
2023-06-13T14:46:02.354Z,14.71
2023-06-13T14:48:48.264Z,14.73
2023-06-13T14:51:34.096Z,14.70
2023-06-13T14:54:19.430Z,14.70
2023-06-13T14:57:05.035Z,14.65
2023-06-13T14:59:50.779Z,14.72
2023-06-13T15:02:36.087Z,14.70
2023-06-13T15:05:21.599Z,14.67
2023-06-13T15:08:07.045Z,14.62
2023-06-13T15:10:52.272Z,14.58
2023-06-13T15:13:38.249Z,14.54
2023-06-13T15:16:23.735Z,14.53
2023-06-13T15:19:08.954Z,14.54
2023-06-13T15:21:54.408Z,14.57
2023-06-13T15:24:43.096Z,14.61
2023-06-13T15:27:28.661Z,14.56
2023-06-13T15:30:14.112Z,14.44
2023-06-13T15:32:59.629Z,14.38
2023-06-13T15:35:44.866Z,14.32
2023-06-13T15:38:31.603Z,14.31
2023-06-13T15:41:17.180Z,14.28
2023-06-13T15:44:02.436Z,14.21
2023-06-13T15:46:48.094Z,14.17
2023-06-13T15:49:34.041Z,14.21
2023-06-13T15:52:19.037Z,14.18
2023-06-13T15:55:04.530Z,14.17
2023-06-13T15:57:49.549Z,14.16
2023-06-13T16:00:34.945Z,14.10
2023-06-13T16:03:20.468Z,14.05
2023-06-13T16:06:06.872Z,13.98
2023-06-13T16:08:52.465Z,13.99
2023-06-13T16:11:37.625Z,13.91
2023-06-13T16:14:23.101Z,13.86
2023-06-13T16:17:08.340Z,13.80
2023-06-13T16:19:53.641Z,13.77
2023-06-13T16:22:39.314Z,13.78
2023-06-13T16:25:24.947Z,13.79
2023-06-13T16:28:10.573Z,13.69
2023-06-13T16:30:56.212Z,13.63
2023-06-13T16:33:41.585Z,13.57
2023-06-13T16:36:27.047Z,13.52
2023-06-13T16:39:12.238Z,13.48
2023-06-13T16:41:57.638Z,13.41
2023-06-13T16:44:42.826Z,13.40
2023-06-13T16:47:28.660Z,13.39
2023-06-13T16:50:13.995Z,13.34
2023-06-13T16:53:00.342Z,13.31
2023-06-13T16:55:47.175Z,13.33
2023-06-13T16:58:32.722Z,13.27
2023-06-13T17:01:18.196Z,13.24
2023-06-13T17:04:03.911Z,13.26
2023-06-13T17:06:49.524Z,13.30
2023-06-13T17:09:35.191Z,13.42
2023-06-13T17:12:20.808Z,13.49
2023-06-13T17:15:06.517Z,13.51
2023-06-13T17:17:58.028Z,13.39
2023-06-13T17:20:46.697Z,13.41
2023-06-13T17:23:32.030Z,13.40
2023-06-13T17:26:17.821Z,13.42
2023-06-13T17:29:03.299Z,13.37
2023-06-13T17:31:48.646Z,13.42
2023-06-13T17:34:33.958Z,13.51
2023-06-13T17:37:19.561Z,13.49
2023-06-13T17:40:07.330Z,13.51
2023-06-13T17:42:52.837Z,13.48
2023-06-13T17:45:37.893Z,13.45
2023-06-13T17:48:23.376Z,13.39
2023-06-13T17:51:08.457Z,13.43
2023-06-13T17:53:54.262Z,13.36
2023-06-13T17:56:39.672Z,13.31
2023-06-13T17:59:24.909Z,13.24
2023-06-13T18:02:12.478Z,13.26
2023-06-13T18:04:57.816Z,13.22
2023-06-13T18:07:43.020Z,13.20
2023-06-13T18:10:28.378Z,13.20
2023-06-13T18:13:14.419Z,13.23
2023-06-13T18:16:00.131Z,13.21
2023-06-13T18:18:46.314Z,13.21
2023-06-13T18:21:34.496Z,13.25
2023-06-13T18:24:19.982Z,13.21
2023-06-13T18:27:05.794Z,13.21
2023-06-13T18:29:51.154Z,13.20
2023-06-13T18:32:36.356Z,13.08
2023-06-13T18:35:21.792Z,13.06
2023-06-13T18:38:07.848Z,13.12
2023-06-13T18:40:53.706Z,13.14
2023-06-13T18:43:39.936Z,13.19
2023-06-13T18:46:25.497Z,13.24
2023-06-13T18:49:11.663Z,13.20
2023-06-13T18:51:57.820Z,13.18
2023-06-13T18:54:44.870Z,13.15
2023-06-13T18:57:30.611Z,13.18
2023-06-13T19:00:17.273Z,13.24
2023-06-13T19:03:07.337Z,13.19
2023-06-13T19:05:52.943Z,13.20
2023-06-13T19:08:38.346Z,13.18
2023-06-13T19:11:23.640Z,13.17
2023-06-13T19:14:10.146Z,13.11
2023-06-13T19:16:55.643Z,13.04
2023-06-13T19:19:41.195Z,13.04
2023-06-13T19:22:26.591Z,12.96
2023-06-13T19:25:13.360Z,12.85
2023-06-13T19:28:10.534Z,12.80
2023-06-13T19:31:00.182Z,12.84
2023-06-13T19:33:45.959Z,12.91
2023-06-13T19:36:31.387Z,12.82
2023-06-13T19:39:16.964Z,12.73
2023-06-13T19:42:02.322Z,12.82
2023-06-13T19:44:47.733Z,12.92
2023-06-13T19:47:33.303Z,12.90
2023-06-13T19:50:18.708Z,12.91
2023-06-13T19:53:06.447Z,12.83
2023-06-13T19:55:52.639Z,12.79
2023-06-13T19:58:38.031Z,12.75
2023-06-13T20:01:24.680Z,12.79
2023-06-13T20:04:13.472Z,12.78
2023-06-13T20:06:58.762Z,12.76
2023-06-13T20:09:43.862Z,12.77
2023-06-13T20:12:29.881Z,12.79
2023-06-13T20:15:15.534Z,12.70
2023-06-13T20:18:02.115Z,12.71
2023-06-13T20:20:47.448Z,12.82
2023-06-13T20:23:33.119Z,12.89
2023-06-13T20:26:18.701Z,12.94
2023-06-13T20:29:04.322Z,12.97
2023-06-13T20:31:49.795Z,13.01
2023-06-13T20:34:35.594Z,13.05
2023-06-13T20:37:21.200Z,13.08
2023-06-13T20:40:10.611Z,13.07
2023-06-13T20:42:56.857Z,13.02
2023-06-13T20:45:42.394Z,12.99
2023-06-13T20:48:29.715Z,12.98
2023-06-13T20:51:16.270Z,12.99
2023-06-13T20:54:01.892Z,13.00
2023-06-13T20:56:47.795Z,13.02
2023-06-13T20:59:33.100Z,12.99
2023-06-13T21:02:19.121Z,12.96
2023-06-13T21:05:05.455Z,12.99
2023-06-13T21:07:53.250Z,13.02
2023-06-13T21:10:39.012Z,13.01
2023-06-13T21:13:24.153Z,12.88
2023-06-13T21:16:09.887Z,12.77
2023-06-13T21:18:55.676Z,12.84
2023-06-13T21:21:42.828Z,12.89
2023-06-13T21:24:29.083Z,12.89
2023-06-13T21:27:14.318Z,12.82
2023-06-13T21:30:00.838Z,12.77
2023-06-13T21:32:47.444Z,12.74
2023-06-13T21:35:32.676Z,12.70
2023-06-13T21:38:21.585Z,12.74
2023-06-13T21:41:07.049Z,12.81
2023-06-13T21:43:52.361Z,12.85
2023-06-13T21:46:37.794Z,12.89
2023-06-13T21:49:23.057Z,12.93
2023-06-13T21:52:08.680Z,12.95
2023-06-13T21:54:54.303Z,12.98
2023-06-13T21:57:39.734Z,13.00
2023-06-13T22:00:25.329Z,13.01
2023-06-13T22:03:12.646Z,13.02
2023-06-13T22:05:58.282Z,13.01
2023-06-13T22:08:43.693Z,13.02
2023-06-13T22:11:30.475Z,13.02
2023-06-13T22:14:15.847Z,13.01
2023-06-13T22:17:01.497Z,12.98
2023-06-13T22:19:48.075Z,12.93
2023-06-13T22:22:33.929Z,12.87
2023-06-13T22:25:19.668Z,12.89
2023-06-13T22:28:04.848Z,12.92
2023-06-13T22:30:50.490Z,12.93
2023-06-13T22:33:35.892Z,12.88
2023-06-13T22:36:21.460Z,12.90
2023-06-13T22:39:07.602Z,12.92
2023-06-13T22:41:53.004Z,12.93
2023-06-13T22:44:38.518Z,12.94
2023-06-13T22:47:23.847Z,12.95
2023-06-13T22:50:09.934Z,12.96
2023-06-13T22:52:55.567Z,12.96
2023-06-13T22:55:40.804Z,12.96
2023-06-13T22:58:26.447Z,12.98
2023-06-13T23:01:13.733Z,12.99
2023-06-13T23:03:59.908Z,12.98
2023-06-13T23:06:45.601Z,12.99
2023-06-13T23:09:31.774Z,13.00
2023-06-13T23:12:16.880Z,12.98
2023-06-13T23:15:02.573Z,12.97
2023-06-13T23:17:47.792Z,12.98
2023-06-13T23:20:34.213Z,12.98
2023-06-13T23:23:19.463Z,12.98
2023-06-13T23:26:04.657Z,12.99
2023-06-13T23:28:50.408Z,13.01
2023-06-13T23:31:38.881Z,13.00
2023-06-13T23:34:24.667Z,12.99
2023-06-13T23:37:11.843Z,12.97
2023-06-13T23:39:57.284Z,12.99
2023-06-13T23:42:42.944Z,12.98
2023-06-13T23:45:28.107Z,12.97
2023-06-13T23:48:13.381Z,12.97
2023-06-13T23:50:58.783Z,12.98
2023-06-13T23:53:44.334Z,12.97
2023-06-13T23:56:29.612Z,12.96
2023-06-13T23:59:15.118Z,12.97
